AirNav   Air Wisconsin Up To $57,000 Bonus
 
 905 users online  

1AZ7 S R P Tolleson Center Heliport
Tolleson, Arizona, USA

GOING TO TOLLESON?


FAA INFORMATION EFFECTIVE 08 SEPTEMBER 2022

Location

FAA Identifier: 1AZ7
Lat/Long: 33-26-59.1530N 112-13-47.5530W
33-26.985883N 112-13.792550W
33.4497647,-112.2298758
(estimated)
Elevation: 1140 ft. / 347 m (estimated)
Variation: 13E (1985)
From city: 2 miles E of TOLLESON, AZ
Time zone: UTC -7 (year round; does not observe DST)
Zip code: 85043

Heliport Operations

Heliport use: Private use. Permission required prior to landing
Activation date: 01/1987
Control tower: no
ARTCC: ALBUQUERQUE CENTER
FSS: PRESCOTT FLIGHT SERVICE STATION
Attendance: UNATNDD
Segmented circle: no

Heliport Communications

WX AWOS-3 at GEU (6 nm NW): PHONE 623-877-8609
WX ASOS at PHX (11 nm E): PHONE 602-231-8557
WX ASOS at DVT (16 nm NE): 126.5 (623-587-7764)
WX ASOS at SDL (19 nm NE): PHONE 480-483-3049

Nearby radio navigation aids

VOR radial/distance  VOR name  Freq  Var
PXRr262/13.0PHOENIX VORTAC115.6012E
BXKr076/29.8BUCKEYE VORTAC110.6014E
IWAr274/30.3WILLIE VORTAC113.3013E
GBNr023/37.1GILA BEND VORTAC116.6014E
TFDr323/37.5STANFIELD VORTAC114.8012E

Heliport Services

Runway Information

Helipad H1

Dimensions: 25 x 25 ft. / 8 x 8 m
Surface: asphalt
Traffic pattern: leftleft

Heliport Ownership and Management from official FAA records

Ownership: Privately-owned
Owner: SALT RIVER PROJECT
2601 E. AIRLANE
PHOENIX, AZ 85034
Phone 602-236-2479
Manager: JEFFREY R. CAMPBELL
2601 E. AIRLANE
PHOENIX, AZ 85034
Phone 602-236-2479

Additional Remarks

FOR CD CTC PHOENIX APCH AT 602-306-2565.

Instrument Procedures

There are no published instrument procedures at 1AZ7.

Some nearby airports with instrument procedures:

KGEU - Glendale Municipal Airport (6 nm NW)
KGYR - Phoenix Goodyear Airport (7 nm W)
KLUF - Luke Air Force Base (9 nm NW)
KPHX - Phoenix Sky Harbor International Airport (11 nm E)
KDVT - Phoenix Deer Valley Airport (16 nm NE)
P19 - Stellar Airpark (18 nm SE)
KSDL - Scottsdale Airport (19 nm NE)
 
Loc | Ops | Rwys | IFR | FBO | Links
Com | Nav | Svcs | Stats | Notes
Area around 1AZ7 (S R P Tolleson Center Heliport)
 
Road maps at: MapQuest Bing Google
 
Aerial photo
No photo
 
Sectional chart

 
Airport distance calculator
Flying to S R P Tolleson Center Heliport? Find the distance to fly.

From to 1AZ7

Sunrise and sunset
Times for 02-Oct-2022
 Local
(UTC-7)
 Zulu
(UTC)
Morning civil twilight06:0013:00
Sunrise06:2513:25
Sunset18:1201:12
Evening civil twilight18:3601:36

Current date and time
Zulu (UTC)  03-Oct-2022 00:09:56
Local (UTC-7)  02-Oct-2022 17:09:56
 
METAR
KGEU 
6nm NW 
022358Z VRB06KT 10SM FEW100 35/12 A2981
KGYR 
7nm W 
022347Z 28007KT 10SM SCT100 SCT250 35/14 A2982
KLUF 
8nm NW 
022355Z AUTO 19006KT 10SM CLR 35/12 A2981 RMK AO2 SLP079 T03460123 10357 20313 57012 $
KPHX 
9nm E 
022351Z 19008KT 10SM FEW100 SCT250 36/10 A2980 RMK AO2 SLP072 CB DSNT N T03610100 10367 20317 56012 $
KDVT 
16nm NE 
022353Z 26008KT 10SM CLR 34/11 A2985 RMK AO2 SLP081 T03390106 10344 20306 56012
KSDL 
19nm NE 
022353Z 22006KT 10SM CLR 34/11 A2985 RMK AO2 SLP082 T03440106 10350 20311 56011
TAF
KPHX 
9nm E 
022102Z 0221/0324 16007KT P6SM FEW100 FEW150 FM022200 21007KT P6SM FEW100 FEW150 FM030000 25006KT P6SM FEW100 FEW150 FM030400 10005KT P6SM FEW100 SCT150 SCT250 FM031700 14008KT P6SM FEW100 FEW150 FM032100 28008KT P6SM FEW100 FEW150
KDVT 
16nm NE 
021720Z 0218/0318 18008KT P6SM FEW100 FEW150 FM022200 23009KT P6SM FEW100 FEW150 FM030400 03008KT P6SM FEW100 SCT150 SCT250 FM030900 VRB04KT P6SM FEW100 FEW150
KSDL 
19nm NE 
021720Z 0218/0318 VRB04KT P6SM FEW100 FEW150 FM022100 21007KT P6SM FEW100 FEW150 FM030300 04005KT P6SM FEW100 SCT150 SCT250 FM030800 VRB03KT P6SM FEW100 FEW150
NOTAMs
Click for the latest NOTAMs
NOTAMs are issued by the DoD/FAA and will open in a separate window not controlled by AirNav.

 

 
 

Would you like to see your business listed on this page?

 If your business provides an interesting product or service to pilots, flight crews, aircraft, or users of the S R P Tolleson Center Heliport, you should consider listing it here.  To start the listing process, click on the button below
 
Add a business
 

Other Pages about S R P Tolleson Center Heliport

Update a link
 
Copyright © AirNav, LLC. All rights reserved. Privacy Policy  Contact